Aérodrome :
LOGIN :

S'inscrire | Disclaimer

   EN    FR    IT 

 










Légende :    VFR   VFR Marginal   IFR   IFR Intensif   IFR Très Intensif
Visi : 
Plafond : 
>= 8 km
>= 3000ft
5 à 8 km
1000 à 3000 ft
1500m à 5 km
500 à 1000 ft
800 à 1500m
200 à 500 ft
< 800m
< 200 ft
Symboles :   Orages  Brouillard  Fortes neiges  Fortes précipitations  Vent > 20 kt
SIGMETs :   Divers  Orages  Givrage  Turbulence  Onde Orograph.  Cendres Volcan.







- Altitude de l'aérodrome : 0 ft


ENQA - Troll A Platform

DERNIER METAR :
  • 160520Z AUTO 17025KT 2000NDV RA SCT018/// OVC045/// 07/06 Q1003 W05/S5

METARs EXPIRÉS :
  • 160450Z AUTO 18027KT 6000NDV -RA BKN017/// OVC035/// 07/06 Q1005 W05/S5
  • 160420Z AUTO 18026KT 7000NDV FEW013/// 07/06 Q1005 W05/S5
  • 160350Z AUTO 17025KT 8000NDV FEW040/// SCT070/// BKN120/// 07/06 Q1006 W04/S5
  • 160320Z AUTO 18028KT 8000NDV FEW076/// SCT120/// 07/06 Q1006 W05/S5

TAF N/A
Pas de NOTAMs connus pour ce terrain.
4 SIGMETs publiés pour la FIR Norway (ENOR) :
 
Onde orographique forte
ENBD SIGMET D06 VALID 160700/161000 ENVN
ENOR NORWAY FIR SEV MTW FCST WI N7000 E02605 - N7040 E03015 - N7110 E02820 - N7110 E02515 - N7000 E02605 SFC/FL080 MOV E 10KT INTSF=
Onde orographique forte
ENBD SIGMET D05 VALID 160430/160700 ENVN
ENOR NORWAY FIR SEV MTW FCST WI N7000 E02605 - N6915 E02035 - N7035 E02125 - N7110 E02515 - N7000 E02605 SFC/FL100 MOV E 10KT NC=
Turbulence forte
ENBD SIGMET D04 VALID 160400/160800 ENVN
ENOR NORWAY FIR SEV TURB FCST WI N6805 E01705 - N6820 E02005 - N7010 E02110 - N7020 E01900 - N6805 E01705 SFC/FL240 MOV NE 10KT NC=
Turbulence forte
ENBD SIGMET D03 VALID 160400/160800 ENVN
ENOR NORWAY FIR SEV TURB FCST WI N6805 E01705 - N6500 E01410 - N6500 E01115 - N6830 E01245 - N7020 E01900 - N6805 E01705 SFC/FL100 STNR NC=



MET'MAP, la Météo Aéronautique d'un coup d'oeil ! - Copyright ORBIFLY Décembre 2007 - Disclaimer

ORBIFLY MET'MAP TEAM :

Programmation & Développement : Alexandra Zaïnal
Conception & Développement : Baudouin d'Aumeries
Co-Programmation & Développement : Marc-Olivier Méhu
Soutien technique & logistique : Manuel Goepfert

Contact : metmap@orbifly.com




SOURCES & CREDITS :

   NOAA